Time;durP1;ratioP1;P1;durP2;ratioP2;P2;SDS_P1;SDS_P2;PMS_P1;PMS_P2;Temp;Humidity;BMP_temperature;BMP_pressure;BME280_temperature;BME280_humidity;BME280_pressure;Samples;Min_cycle;Max_cycle;Signal;HPM_P1;HPM_P2
2021/06/26 00:00:24;;;;;;;14.23;12.50;;;17.70;97.10;;;17.67;91.94;98457.56;5059096;28;20728;-67
2021/06/26 00:02:52;;;;;;;14.93;13.43;;;17.70;97.30;;;17.71;92.35;98455.44;5065011;28;20802;-67
2021/06/26 00:05:21;;;;;;;14.60;13.10;;;17.70;97.70;;;17.73;92.25;98457.00;5051638;28;21070;-67
2021/06/26 00:07:50;;;;;;;14.90;12.40;;;17.70;97.80;;;17.73;92.54;98458.81;5062404;28;21082;-67
2021/06/26 00:10:18;;;;;;;13.60;12.20;;;17.70;97.80;;;17.71;92.94;98451.03;5060868;28;20641;-67
2021/06/26 00:12:48;;;;;;;15.90;13.10;;;17.70;98.00;;;17.72;92.51;98450.03;5060550;28;20974;-67
2021/06/26 00:15:17;;;;;;;16.97;13.57;;;17.70;97.80;;;17.71;92.55;98453.66;5061307;28;20636;-67
2021/06/26 00:17:46;;;;;;;15.43;12.73;;;17.80;97.90;;;17.70;92.86;98451.16;5064770;28;21192;-67
2021/06/26 00:20:15;;;;;;;17.13;12.53;;;17.70;97.80;;;17.68;92.79;98451.31;5065013;28;20636;-67
2021/06/26 00:22:44;;;;;;;14.93;13.33;;;17.70;97.90;;;17.67;92.93;98441.72;5060166;28;21217;-67
2021/06/26 00:25:13;;;;;;;21.23;14.73;;;17.70;98.00;;;17.69;92.99;98439.75;5070226;28;21283;-67
2021/06/26 00:27:42;;;;;;;14.63;13.10;;;17.70;98.10;;;17.70;93.15;98441.44;5059349;28;20640;-67
2021/06/26 00:30:14;;;;;;;15.80;13.50;;;17.70;98.20;;;17.73;92.80;98440.34;5063635;28;21029;-67
2021/06/26 00:32:42;;;;;;;15.20;12.77;;;17.70;98.20;;;17.72;93.36;98444.75;5064684;28;23184;-67
2021/06/26 00:35:13;;;;;;;16.10;13.20;;;17.70;98.30;;;17.71;93.59;98442.25;5063297;28;20641;-67
2021/06/26 00:37:42;;;;;;;17.80;12.37;;;17.70;98.20;;;17.69;92.66;98437.13;5059507;28;20673;-67
2021/06/26 00:40:13;;;;;;;14.73;13.00;;;17.70;98.20;;;17.69;92.74;98442.41;5063793;28;20636;-67
2021/06/26 00:42:44;;;;;;;13.57;12.17;;;17.70;98.10;;;17.69;93.45;98441.56;5058657;28;20666;-67
2021/06/26 00:45:18;;;;;;;15.83;14.13;;;17.70;98.30;;;17.72;93.19;98446.56;5058295;28;20657;-67
2021/06/26 00:47:47;;;;;;;14.20;12.60;;;17.80;98.40;;;17.73;93.57;98437.69;5060813;28;20624;-67
2021/06/26 00:50:19;;;;;;;16.23;14.37;;;17.80;98.50;;;17.73;93.80;98441.16;5059788;28;20644;-67
2021/06/26 00:52:48;;;;;;;15.47;13.97;;;17.80;98.50;;;17.74;93.29;98437.56;5054181;28;21120;-67
2021/06/26 00:55:18;;;;;;;16.43;13.63;;;17.80;98.60;;;17.74;93.86;98436.69;5055749;28;20665;-67
2021/06/26 00:57:53;;;;;;;15.67;13.97;;;17.80;98.50;;;17.73;93.53;98429.78;5064352;28;20632;-67
2021/06/26 01:00:24;;;;;;;16.03;14.33;;;17.80;98.70;;;17.71;92.82;98424.66;5062023;28;20638;-67
2021/06/26 01:02:54;;;;;;;15.87;13.43;;;17.70;98.40;;;17.68;93.77;98430.19;5060493;28;20643;-67
2021/06/26 01:05:24;;;;;;;15.27;13.67;;;17.70;98.50;;;17.70;93.82;98425.59;5069597;28;20681;-67
2021/06/26 01:07:53;;;;;;;14.20;12.70;;;17.70;98.50;;;17.71;94.43;98419.38;5055812;28;20668;-67
2021/06/26 01:10:22;;;;;;;15.27;13.67;;;17.70;98.80;;;17.72;94.00;98422.81;5055241;28;21020;-67
2021/06/26 01:12:50;;;;;;;18.17;14.53;;;17.70;98.80;;;17.71;94.39;98415.88;5060449;28;20694;-67
2021/06/26 01:15:19;;;;;;;15.63;14.03;;;17.80;98.80;;;17.71;94.16;98416.72;5071954;28;20661;-67
2021/06/26 01:17:50;;;;;;;16.37;14.60;;;17.70;98.80;;;17.70;94.03;98414.22;5055682;28;20647;-67
2021/06/26 01:20:20;;;;;;;16.17;13.97;;;17.70;98.90;;;17.71;94.45;98408.81;5059458;28;20659;-67
2021/06/26 01:22:54;;;;;;;15.00;13.27;;;17.70;98.90;;;17.70;93.91;98404.50;5066167;28;20635;-67
2021/06/26 01:25:24;;;;;;;16.77;14.60;;;17.80;98.90;;;17.70;93.89;98408.94;5067116;28;20739;-67
2021/06/26 01:27:54;;;;;;;16.40;13.57;;;17.70;98.90;;;17.69;94.18;98402.81;5056420;28;20681;-67
2021/06/26 01:30:27;;;;;;;14.73;13.20;;;17.70;98.80;;;17.68;94.05;98403.81;5061905;28;20636;-67
2021/06/26 01:32:58;;;;;;;18.57;13.90;;;17.70;98.90;;;17.67;94.31;98404.78;5074078;28;20707;-67
2021/06/26 01:35:28;;;;;;;16.67;13.57;;;17.70;98.90;;;17.67;94.36;98407.41;5056876;28;21199;-67
2021/06/26 01:38:00;;;;;;;16.47;13.90;;;17.70;99.10;;;17.68;94.85;98417.00;5059869;28;20686;-67
2021/06/26 01:40:29;;;;;;;17.77;13.97;;;17.70;99.20;;;17.69;94.04;98415.19;5060321;28;20640;-67
2021/06/26 01:42:59;;;;;;;14.47;12.97;;;17.70;99.10;;;17.69;94.74;98423.09;5056728;28;20645;-67
2021/06/26 01:45:28;;;;;;;15.83;14.00;;;17.70;99.10;;;17.68;94.44;98409.09;5054795;28;20645;-67
2021/06/26 01:47:58;;;;;;;15.33;13.50;;;17.70;99.10;;;17.68;94.95;98406.44;5060671;28;20680;-67
2021/06/26 01:50:29;;;;;;;14.43;12.87;;;17.70;99.20;;;17.69;94.78;98402.81;5058946;28;20616;-67
2021/06/26 01:53:01;;;;;;;16.60;13.63;;;17.70;99.20;;;17.70;94.57;98398.41;5055612;28;20761;-67
2021/06/26 01:55:31;;;;;;;19.37;14.43;;;17.70;99.10;;;17.69;93.93;98394.91;5059061;28;20650;-67
2021/06/26 01:58:00;;;;;;;18.80;14.03;;;17.70;99.00;;;17.70;94.28;98399.22;5058512;28;21171;-67
2021/06/26 02:00:29;;;;;;;15.50;13.60;;;17.70;99.20;;;17.70;94.49;98404.50;5056865;28;20679;-67
2021/06/26 02:02:58;;;;;;;16.40;12.93;;;17.80;99.20;;;17.70;94.84;98404.50;5063428;28;21083;-66
2021/06/26 02:05:27;;;;;;;15.77;14.17;;;17.70;99.20;;;17.70;95.23;98407.13;5065583;28;20690;-66
2021/06/26 02:07:57;;;;;;;17.50;15.27;;;17.80;99.40;;;17.70;95.01;98401.84;5063190;28;20641;-67
2021/06/26 02:10:27;;;;;;;15.73;14.13;;;17.80;99.40;;;17.71;95.32;98402.69;5065851;28;20638;-67
2021/06/26 02:12:56;;;;;;;16.73;14.40;;;17.70;99.40;;;17.72;95.27;98404.34;5055475;28;20651;-67
2021/06/26 02:15:25;;;;;;;16.23;14.50;;;17.70;99.40;;;17.72;94.47;98402.53;5058558;28;20722;-67
2021/06/26 02:17:54;;;;;;;16.23;14.40;;;17.70;99.30;;;17.71;94.87;98398.25;5054835;28;20712;-67
2021/06/26 02:20:23;;;;;;;20.90;14.63;;;17.70;99.20;;;17.72;94.57;98399.06;5056080;28;20749;-67
2021/06/26 02:22:51;;;;;;;18.77;14.60;;;17.70;99.30;;;17.71;94.33;98392.13;5057345;28;20978;-67
2021/06/26 02:25:20;;;;;;;16.80;14.97;;;17.70;99.10;;;17.69;93.96;98394.91;5055784;28;20684;-67
2021/06/26 02:27:50;;;;;;;16.27;14.53;;;17.70;99.10;;;17.70;94.93;98403.69;5059217;28;21260;-67
2021/06/26 02:30:20;;;;;;;15.60;13.20;;;17.70;99.20;;;17.70;94.48;98404.50;5058037;28;21044;-67
2021/06/26 02:32:48;;;;;;;17.30;13.87;;;17.70;99.30;;;17.70;94.37;98401.03;5057717;28;20691;-67
2021/06/26 02:35:17;;;;;;;18.67;14.77;;;17.70;99.80;;;17.69;95.41;98405.47;5051438;28;21671;-67
2021/06/26 02:37:46;;;;;;;19.57;15.40;;;17.70;99.40;;;17.68;95.01;98395.91;5055080;28;20653;-66
2021/06/26 02:40:15;;;;;;;17.83;14.80;;;17.70;99.40;;;17.69;95.03;98402.00;5058618;28;21032;-66
2021/06/26 02:42:44;;;;;;;18.23;14.47;;;17.70;99.40;;;17.68;94.94;98400.31;5056142;28;20732;-66
2021/06/26 02:45:15;;;;;;;16.00;14.30;;;17.70;99.50;;;17.67;95.11;98410.06;5056509;28;21120;-66
2021/06/26 02:47:43;;;;;;;16.40;14.60;;;17.70;99.50;;;17.67;95.22;98410.06;5052679;28;20747;-66
2021/06/26 02:50:13;;;;;;;16.10;14.37;;;17.70;99.50;;;17.67;95.28;98411.88;5056854;28;20681;-66
2021/06/26 02:52:43;;;;;;;15.87;14.17;;;17.70;99.70;;;17.67;95.17;98417.16;5057374;28;21194;-66
2021/06/26 02:55:14;;;;;;;17.17;15.07;;;17.70;99.50;;;17.66;94.87;98412.84;5051412;28;21105;-66
2021/06/26 02:57:43;;;;;;;18.97;16.50;;;17.70;99.50;;;17.61;94.79;98415.88;5057396;28;20661;-66
2021/06/26 03:00:15;;;;;;;18.20;16.10;;;17.70;99.40;;;17.61;94.55;98405.34;5057820;28;21356;-66
2021/06/26 03:02:43;;;;;;;17.67;15.20;;;17.60;99.50;;;17.62;95.37;98401.75;5059535;28;20684;-66
2021/06/26 03:05:12;;;;;;;17.53;15.17;;;17.70;99.70;;;17.60;94.90;98398.38;5055187;28;20648;-66
2021/06/26 03:07:49;;;;;;;17.97;15.03;;;17.70;99.50;;;17.55;94.71;98405.06;5051492;28;20723;-66
2021/06/26 03:10:18;;;;;;;17.30;15.40;;;17.60;99.40;;;17.55;95.82;98410.34;5053139;28;20653;-66
2021/06/26 03:12:48;;;;;;;18.57;14.80;;;17.60;99.70;;;17.57;95.49;98409.22;5075373;28;20694;-67
2021/06/26 03:15:18;;;;;;;16.60;14.17;;;17.60;99.90;;;17.58;95.32;98402.97;5056121;28;20656;-66
2021/06/26 03:17:47;;;;;;;17.93;15.40;;;17.60;99.90;;;17.61;95.62;98404.50;5055723;28;20668;-66
2021/06/26 03:20:16;;;;;;;19.90;14.80;;;17.60;99.90;;;17.61;96.03;98405.34;5054598;28;20636;-66
2021/06/26 03:22:45;;;;;;;18.50;14.07;;;17.60;99.90;;;17.62;95.75;98400.88;5053519;28;20632;-66
2021/06/26 03:25:14;;;;;;;16.10;13.97;;;17.70;99.90;;;17.63;95.10;98406.03;5053002;28;21062;-66
2021/06/26 03:27:43;;;;;;;16.93;14.30;;;17.70;99.90;;;17.64;95.84;98405.06;5055920;28;20656;-66
2021/06/26 03:30:13;;;;;;;16.10;14.40;;;17.70;99.80;;;17.60;95.49;98403.66;5058712;28;20798;-67
2021/06/26 03:32:43;;;;;;;18.93;16.20;;;17.70;99.70;;;17.61;95.31;98402.69;5050035;28;20687;-67
2021/06/26 03:35:13;;;;;;;16.13;14.40;;;17.60;99.80;;;17.62;95.36;98407.00;5055231;28;20999;-66
2021/06/26 03:37:43;;;;;;;17.77;14.27;;;17.60;99.90;;;17.63;94.87;98399.91;5055277;28;20672;-66
2021/06/26 03:40:13;;;;;;;16.20;14.33;;;17.70;99.90;;;17.63;95.50;98403.38;5052849;28;20663;-66
2021/06/26 03:42:41;;;;;;;15.40;13.80;;;17.60;99.90;;;17.64;95.42;98412.16;5054332;28;20648;-66
2021/06/26 03:45:11;;;;;;;18.20;14.30;;;17.70;99.90;;;17.64;95.61;98409.50;5053735;28;21280;-67
2021/06/26 03:47:40;;;;;;;17.20;13.97;;;17.70;99.90;;;17.67;95.35;98414.50;5051268;28;20699;-66
2021/06/26 03:50:11;;;;;;;16.90;14.13;;;17.70;99.90;;;17.69;95.44;98412.56;5052284;28;20634;-66
2021/06/26 03:52:40;;;;;;;16.63;14.20;;;17.70;99.90;;;17.69;95.22;98405.47;5055723;28;20638;-66
2021/06/26 03:55:10;;;;;;;16.10;14.30;;;17.70;99.80;;;17.68;94.97;98406.44;5056133;28;20668;-66
2021/06/26 03:57:38;;;;;;;18.00;14.90;;;17.70;99.60;;;17.68;94.54;98411.72;5055023;28;20634;-66
2021/06/26 04:00:08;;;;;;;17.80;14.10;;;17.70;99.50;;;17.67;95.03;98417.97;5057063;28;20660;-66
2021/06/26 04:02:37;;;;;;;18.70;14.50;;;17.70;99.50;;;17.68;94.70;98411.72;5052614;28;21320;-66
2021/06/26 04:05:07;;;;;;;17.33;14.80;;;17.70;99.60;;;17.71;94.63;98413.22;5057065;28;20645;-66
2021/06/26 04:07:37;;;;;;;15.53;14.03;;;17.70;99.50;;;17.71;94.55;98416.72;5053050;28;21087;-66
2021/06/26 04:10:07;;;;;;;16.80;13.80;;;17.70;99.40;;;17.69;94.78;98417.84;5058855;28;20635;-67
2021/06/26 04:12:36;;;;;;;15.73;14.13;;;17.70;99.60;;;17.68;95.04;98419.66;5064005;28;21204;-66
2021/06/26 04:15:06;;;;;;;14.57;13.07;;;17.70;99.60;;;17.70;95.07;98414.22;5056971;28;20702;-66
2021/06/26 04:17:35;;;;;;;15.90;13.57;;;17.70;99.60;;;17.70;94.75;98409.78;5063276;28;20637;-67
2021/06/26 04:20:05;;;;;;;14.63;13.20;;;17.70;99.60;;;17.73;94.85;98413.94;5057409;28;20648;-67
2021/06/26 04:22:33;;;;;;;15.53;13.83;;;17.70;99.60;;;17.74;94.92;98400.63;5055273;28;20702;-67
2021/06/26 04:25:04;;;;;;;16.60;13.97;;;17.80;99.60;;;17.78;94.83;98403.78;5053407;28;20628;-67
2021/06/26 04:27:33;;;;;;;15.33;13.80;;;17.80;99.60;;;17.81;94.45;98399.06;5057156;28;21610;-66
2021/06/26 04:30:02;;;;;;;16.30;13.80;;;17.80;99.60;;;17.88;94.42;98399.34;5052961;28;20664;-66
2021/06/26 04:32:31;;;;;;;17.83;13.20;;;17.90;99.60;;;17.93;94.22;98398.75;5059948;28;20649;-66
2021/06/26 04:34:59;;;;;;;15.13;13.20;;;17.90;99.50;;;18.01;94.29;98403.31;5053609;28;20651;-66
2021/06/26 04:37:28;;;;;;;15.17;13.57;;;18.00;99.50;;;18.10;94.21;98405.97;5058328;28;20990;-67
2021/06/26 04:39:57;;;;;;;16.00;14.30;;;18.10;99.50;;;18.17;93.98;98407.06;5071908;28;21005;-66
2021/06/26 04:42:26;;;;;;;15.40;13.77;;;18.20;99.50;;;18.27;94.53;98405.22;5056089;28;20648;-66
2021/06/26 04:44:57;;;;;;;15.00;13.40;;;18.20;99.50;;;18.35;93.88;98418.53;5062406;28;20633;-66
2021/06/26 04:47:27;;;;;;;14.97;13.07;;;18.30;99.40;;;18.40;93.59;98418.09;5053736;28;21013;-66
2021/06/26 04:49:55;;;;;;;14.80;13.20;;;18.30;99.30;;;18.44;93.44;98413.22;5057446;28;21280;-67
2021/06/26 04:52:24;;;;;;;14.50;12.97;;;18.40;99.10;;;18.50;93.59;98417.91;5056344;28;20728;-67
2021/06/26 04:54:52;;;;;;;13.80;12.30;;;18.40;99.00;;;18.58;93.11;98418.03;5059053;28;20628;-67
2021/06/26 04:57:21;;;;;;;16.47;13.33;;;18.50;98.90;;;18.64;92.43;98404.25;5061352;28;20632;-66
2021/06/26 04:59:51;;;;;;;14.43;12.90;;;18.60;98.80;;;18.69;92.11;98409.91;5065662;28;20686;-67
2021/06/26 05:02:19;;;;;;;14.73;13.23;;;18.60;98.50;;;18.76;91.28;98412.78;5061477;28;20639;-67
2021/06/26 05:04:48;;;;;;;14.33;12.83;;;18.70;98.30;;;18.81;91.08;98408.75;5068272;28;20863;-67
2021/06/26 05:07:17;;;;;;;13.17;11.83;;;18.80;98.30;;;18.85;91.88;98407.44;5061655;28;20665;-67
2021/06/26 05:09:45;;;;;;;16.80;13.13;;;18.80;98.30;;;18.88;91.65;98413.28;5065625;28;20699;-67
2021/06/26 05:12:14;;;;;;;14.60;12.70;;;18.80;98.40;;;18.88;92.35;98413.28;5069489;28;20691;-66
2021/06/26 05:14:42;;;;;;;13.70;12.40;;;18.90;98.20;;;18.85;90.29;98415.38;5061574;28;20979;-66
2021/06/26 05:17:12;;;;;;;15.27;13.67;;;18.80;97.90;;;18.74;90.06;98417.41;5066348;28;20642;-66
2021/06/26 05:19:41;;;;;;;14.57;12.70;;;18.70;97.20;;;18.67;90.24;98419.81;5063753;28;20644;-67
2021/06/26 05:22:10;;;;;;;14.27;12.80;;;18.60;97.30;;;18.61;90.05;98424.81;5063854;28;20695;-67
2021/06/26 05:24:39;;;;;;;14.73;13.10;;;18.60;97.40;;;18.61;91.48;98415.13;5062599;28;21268;-67
2021/06/26 05:27:08;;;;;;;14.07;12.57;;;18.60;97.80;;;18.63;91.38;98422.91;5063173;28;20670;-66
2021/06/26 05:29:42;;;;;;;14.90;12.80;;;18.60;97.70;;;18.63;91.21;98428.19;5068180;28;20664;-66
2021/06/26 05:32:12;;;;;;;15.03;13.43;;;18.50;97.60;;;18.68;91.68;98418.81;5062813;28;20639;-66
2021/06/26 05:34:42;;;;;;;15.53;13.20;;;18.60;97.90;;;18.77;91.59;98419.75;5060704;28;20637;-67
2021/06/26 05:37:10;;;;;;;13.83;12.27;;;18.70;98.10;;;18.90;92.03;98410.50;5062041;28;21199;-66
2021/06/26 05:39:39;;;;;;;14.47;12.97;;;18.80;98.20;;;19.02;91.63;98418.09;5063560;28;21019;-66
2021/06/26 05:42:08;;;;;;;13.70;12.40;;;18.90;98.10;;;19.19;91.97;98424.41;5060534;28;20699;-67
2021/06/26 05:44:37;;;;;;;15.27;13.00;;;19.10;98.20;;;19.30;90.92;98413.59;5060890;28;21186;-67
2021/06/26 05:47:06;;;;;;;13.37;11.97;;;19.20;97.60;;;19.42;89.06;98418.50;5063089;28;21212;-67
2021/06/26 05:49:36;;;;;;;14.27;12.70;;;19.30;97.30;;;19.52;89.54;98414.81;5059892;28;20661;-66
2021/06/26 05:52:05;;;;;;;14.43;12.93;;;19.40;96.90;;;19.69;88.89;98421.06;5064212;28;20648;-66
2021/06/26 05:54:34;;;;;;;14.13;12.73;;;19.50;96.80;;;19.76;87.63;98422.13;5062499;28;20663;-66
2021/06/26 05:57:04;;;;;;;14.80;13.30;;;19.60;96.60;;;19.93;89.21;98422.94;5064526;28;20693;-67
2021/06/26 05:59:32;;;;;;;14.03;12.60;;;19.70;96.80;;;20.41;88.38;98421.44;5062504;28;20626;-67
2021/06/26 06:02:01;;;;;;;16.20;12.40;;;20.10;96.80;;;20.81;86.49;98424.34;5063823;28;20981;-67
2021/06/26 06:04:30;;;;;;;13.83;12.40;;;20.50;96.20;;;21.02;85.11;98430.06;5058682;28;20646;-68
2021/06/26 06:07:00;;;;;;;13.87;12.47;;;20.80;95.60;;;21.07;85.36;98425.09;5059746;28;21057;-68
2021/06/26 06:09:28;;;;;;;14.53;13.13;;;20.90;94.80;;;21.14;85.75;98434.91;5060774;28;20662;-68
2021/06/26 06:11:57;;;;;;;14.17;12.77;;;21.00;94.70;;;21.20;84.70;98426.31;5063252;28;21033;-67
2021/06/26 06:14:25;;;;;;;12.60;11.40;;;21.10;94.30;;;21.58;83.46;98425.75;5057410;28;20639;-67
2021/06/26 06:16:54;;;;;;;14.07;12.70;;;21.40;94.30;;;21.95;83.54;98424.25;5062658;28;20685;-68
2021/06/26 06:19:23;;;;;;;14.23;12.83;;;21.70;93.80;;;22.41;82.28;98435.03;5062385;28;20662;-67
2021/06/26 06:21:52;;;;;;;14.43;12.00;;;22.10;93.30;;;22.49;80.29;98430.53;5059946;28;20746;-67
2021/06/26 06:24:22;;;;;;;13.70;12.30;;;22.30;92.10;;;22.49;80.30;98430.53;5061066;28;21759;-68
2021/06/26 06:26:51;;;;;;;13.50;12.20;;;22.30;92.00;;;22.92;79.26;98430.84;5061107;28;20670;-67
2021/06/26 06:29:19;;;;;;;13.60;12.30;;;22.60;92.00;;;23.70;78.40;98438.63;5058819;28;20669;-68
2021/06/26 06:31:48;;;;;;;13.10;11.80;;;23.20;91.40;;;24.27;75.53;98440.66;5059621;28;20640;-67
2021/06/26 06:34:17;;;;;;;13.20;11.90;;;23.70;90.20;;;24.71;74.63;98439.72;5059459;28;20711;-68
2021/06/26 06:36:46;;;;;;;14.17;12.80;;;24.20;87.70;;;24.53;73.68;98443.75;5054958;28;20708;-68
2021/06/26 06:39:15;;;;;;;14.27;12.87;;;24.20;85.60;;;24.52;73.90;98434.09;5059558;28;20628;-68
2021/06/26 06:41:45;;;;;;;14.03;12.60;;;24.30;84.80;;;24.65;72.23;98437.78;5059617;28;20662;-66
2021/06/26 06:44:13;;;;;;;14.90;13.50;;;24.50;83.00;;;24.54;73.68;98437.44;5054167;28;20691;-66
2021/06/26 06:46:43;;;;;;;14.67;13.27;;;24.40;82.90;;;24.89;73.19;98442.84;5057449;28;20726;-67
2021/06/26 06:49:11;;;;;;;14.17;12.87;;;24.60;83.20;;;24.91;71.25;98447.00;5044973;28;20656;-68
2021/06/26 06:51:40;;;;;;;14.67;12.33;;;24.70;81.30;;;25.20;70.56;98453.16;5062187;28;20646;-68
2021/06/26 06:54:09;;;;;;;14.40;12.23;;;24.90;80.00;;;25.22;68.84;98440.44;5062495;28;20708;-68
2021/06/26 06:56:37;;;;;;;13.40;12.20;;;25.00;76.90;;;24.96;67.32;98441.94;5058634;28;20713;-68
2021/06/26 06:59:07;;;;;;;13.47;12.07;;;24.80;74.10;;;25.32;68.09;98440.97;5055031;28;20655;-68
2021/06/26 07:01:36;;;;;;;13.80;12.60;;;25.10;75.50;;;25.68;67.54;98436.50;5057484;28;20706;-68
2021/06/26 07:04:05;;;;;;;14.03;12.60;;;25.40;74.60;;;25.51;66.39;98434.19;5051836;28;20638;-68
2021/06/26 07:06:33;;;;;;;14.20;12.70;;;25.30;72.40;;;25.46;66.17;98431.28;5058000;28;20667;-68
2021/06/26 07:09:02;;;;;;;13.80;12.40;;;25.30;71.80;;;25.34;64.69;98427.44;5061018;28;20754;-68
2021/06/26 07:11:31;;;;;;;13.90;12.63;;;25.20;69.40;;;25.08;65.29;98421.78;5055652;28;20674;-68
2021/06/26 07:13:59;;;;;;;13.83;12.50;;;25.10;69.90;;;25.15;66.55;98418.19;5058838;28;20637;-68
2021/06/26 07:16:30;;;;;;;12.23;11.03;;;25.00;71.60;;;25.38;64.79;98423.34;5055563;28;20652;-67
2021/06/26 07:18:58;;;;;;;13.77;12.47;;;25.10;70.70;;;25.95;64.55;98423.19;5058244;28;20640;-67
2021/06/26 07:21:27;;;;;;;13.23;12.03;;;25.50;70.50;;;26.35;62.38;98428.66;5058287;28;20635;-68
2021/06/26 07:23:56;;;;;;;13.03;11.30;;;25.80;66.80;;;26.70;62.36;98433.88;5056243;28;21274;-67
2021/06/26 07:26:24;;;;;;;12.60;11.50;;;26.10;68.40;;;26.96;61.20;98433.22;5056530;28;20641;-69
2021/06/26 07:28:53;;;;;;;12.10;10.90;;;26.40;66.40;;;27.08;60.95;98433.28;5059865;28;21167;-68
2021/06/26 07:31:21;;;;;;;12.00;10.80;;;26.60;65.20;;;27.39;60.32;98425.56;5062958;28;20642;-68
2021/06/26 07:33:52;;;;;;;11.60;10.60;;;26.90;63.90;;;27.51;59.52;98425.84;5060514;28;20730;-67
2021/06/26 07:36:21;;;;;;;12.37;11.23;;;27.10;63.90;;;27.46;60.83;98431.78;5057904;28;21077;-67
2021/06/26 07:38:49;;;;;;;11.37;10.30;;;27.10;63.00;;;27.32;60.20;98419.38;5061252;28;21259;-67
2021/06/26 07:41:18;;;;;;;11.23;10.13;;;27.00;61.20;;;27.56;58.43;98421.53;5058512;28;21198;-67
2021/06/26 07:43:50;;;;;;;11.80;10.70;;;27.10;60.60;;;27.43;59.44;98418.78;5060075;28;20644;-67
2021/06/26 07:46:19;;;;;;;12.37;11.17;;;27.10;60.90;;;27.52;60.12;98415.75;5058301;28;20652;-67
2021/06/26 07:48:50;;;;;;;12.30;11.10;;;27.10;61.30;;;27.64;59.55;98416.00;5056802;28;20645;-68
2021/06/26 07:51:19;;;;;;;11.70;10.63;;;27.20;62.20;;;27.61;59.25;98425.25;5059408;28;20630;-68
2021/06/26 07:53:48;;;;;;;12.03;10.93;;;27.10;60.50;;;27.63;59.69;98417.00;5061257;28;20635;-68
2021/06/26 07:56:17;;;;;;;13.30;12.00;;;27.20;61.20;;;27.65;58.48;98415.78;5056592;28;21170;-68
2021/06/26 07:58:46;;;;;;;14.40;12.00;;;27.20;59.70;;;27.70;59.94;98407.13;5056626;28;21291;-68
2021/06/26 08:01:16;;;;;;;13.20;12.00;;;27.20;61.00;;;27.84;60.48;98403.44;5054852;28;21224;-68
2021/06/26 08:03:45;;;;;;;13.20;11.90;;;27.40;62.70;;;27.85;60.35;98399.72;5059286;28;20635;-68
2021/06/26 08:06:15;;;;;;;13.20;12.00;;;27.50;61.80;;;27.60;58.40;98395.97;5059791;28;20674;-68
2021/06/26 08:08:43;;;;;;;12.23;11.13;;;27.40;59.00;;;27.59;59.25;98394.34;5058353;28;20722;-68
2021/06/26 08:11:12;;;;;;;12.60;11.50;;;27.30;58.90;;;27.79;57.67;98403.22;5053718;28;20645;-68
2021/06/26 08:13:41;;;;;;;11.40;10.40;;;27.50;58.50;;;27.95;57.75;98384.88;5060938;28;21300;-68
2021/06/26 08:16:09;;;;;;;11.77;10.67;;;27.60;58.80;;;27.98;57.36;98381.78;5062674;28;20639;-68
2021/06/26 08:18:38;;;;;;;12.87;11.63;;;27.70;57.80;;;28.15;57.00;98391.91;5054415;28;20632;-68
2021/06/26 08:21:07;;;;;;;11.90;10.80;;;27.80;57.90;;;28.22;56.58;98386.53;5064506;28;21035;-68
2021/06/26 08:23:37;;;;;;;11.83;10.83;;;27.90;57.00;;;28.42;59.13;98387.38;5061033;28;20644;-68
2021/06/26 08:26:06;;;;;;;12.03;10.90;;;28.10;59.40;;;28.34;56.98;98387.56;5057910;28;20689;-68
2021/06/26 08:28:34;;;;;;;11.87;10.77;;;28.00;57.20;;;28.47;57.64;98390.25;5058919;28;20655;-68
2021/06/26 08:31:04;;;;;;;12.40;11.20;;;28.10;57.90;;;28.35;55.91;98389.22;5062861;28;21476;-68
2021/06/26 08:33:32;;;;;;;12.17;10.97;;;28.00;56.20;;;28.29;56.76;98382.81;5063668;28;20682;-68
2021/06/26 08:36:01;;;;;;;11.57;10.60;;;27.90;56.10;;;28.38;56.84;98384.25;5060844;28;20654;-68
2021/06/26 08:38:30;;;;;;;12.33;11.23;;;28.00;56.80;;;28.56;59.96;98387.13;5056163;28;20875;-68
2021/06/26 08:41:00;;;;;;;12.87;11.57;;;28.10;58.90;;;28.40;59.66;98374.16;5063812;28;20625;-68
2021/06/26 08:43:28;;;;;;;12.33;11.33;;;28.10;59.80;;;28.15;60.74;98373.13;5063518;28;20650;-68
2021/06/26 08:46:00;;;;;;;11.43;10.27;;;28.00;58.90;;;28.08;56.37;98369.63;5058962;28;20717;-68
2021/06/26 08:48:29;;;;;;;11.67;10.67;;;27.90;55.30;;;28.22;56.29;98378.47;5061590;28;21520;-68
2021/06/26 08:50:59;;;;;;;11.23;10.23;;;27.90;56.00;;;28.17;56.02;98379.09;5060358;28;20745;-68
2021/06/26 08:53:28;;;;;;;11.30;10.10;;;27.90;55.60;;;28.14;58.24;98366.09;5062685;28;20766;-68
2021/06/26 08:55:58;;;;;;;11.63;10.53;;;27.90;57.20;;;27.77;58.41;98370.41;5062257;28;21027;-68
2021/06/26 08:58:27;;;;;;;12.07;10.93;;;27.60;56.40;;;27.37;58.56;98371.34;5060486;28;21047;-68
2021/06/26 09:00:56;;;;;;;11.57;10.57;;;27.30;56.80;;;27.10;59.52;98364.25;5062985;28;20635;-69
2021/06/26 09:03:25;;;;;;;11.23;10.23;;;27.00;57.30;;;26.91;58.46;98356.13;5065056;28;20698;-68
2021/06/26 09:06:03;;;;;;;10.80;9.90;;;26.80;56.80;;;26.75;58.18;98359.13;5066893;28;20738;-68
2021/06/26 09:08:32;;;;;;;10.90;9.93;;;26.70;56.90;;;26.66;60.09;98360.31;5063263;28;20715;-68
2021/06/26 09:11:02;;;;;;;10.63;9.63;;;26.60;58.30;;;27.12;59.56;98359.53;5062508;28;20728;-68
2021/06/26 09:13:35;;;;;;;12.83;11.53;;;26.80;59.50;;;27.21;59.38;98357.47;5077417;28;22117;-76
2021/06/26 09:16:11;;;;;;;10.90;9.90;;;26.90;58.20;;;27.12;60.22;98354.16;5062330;28;20725;-68
2021/06/26 09:18:42;;;;;;;11.00;10.00;;;26.90;58.50;;;27.31;57.79;98356.06;5063403;28;20635;-69
2021/06/26 09:21:23;;;;;;;9.90;9.00;;;27.00;57.10;;;27.13;58.88;98352.31;5059316;28;20635;-68
2021/06/26 09:24:00;;;;;;;11.10;10.10;;;26.90;58.00;;;26.90;58.98;98350.97;5058628;28;20639;-68
2021/06/26 09:26:32;;;;;;;10.87;9.87;;;26.70;57.80;;;26.92;59.99;98351.63;5064824;28;20628;-68
2021/06/26 09:29:12;;;;;;;10.73;9.80;;;26.70;59.00;;;27.07;59.34;98353.94;5063165;28;20624;-67
2021/06/26 09:31:50;;;;;;;10.53;9.63;;;26.80;58.70;;;27.04;60.88;98350.00;5061925;28;20643;-67
2021/06/26 09:34:21;;;;;;;11.67;10.57;;;26.80;59.50;;;27.17;60.67;98353.56;5063914;28;20669;-67
2021/06/26 09:37:02;;;;;;;10.77;9.70;;;26.90;61.50;;;27.57;61.65;98353.47;5060321;28;20636;-67
2021/06/26 09:39:35;;;;;;;10.40;9.50;;;27.10;61.40;;;27.89;57.74;98361.56;5061977;28;21182;-67
2021/06/26 09:42:17;;;;;;;10.93;9.93;;;27.40;58.00;;;27.59;58.77;98359.47;5058671;28;21043;-67
2021/06/26 09:44:55;;;;;;;11.17;10.17;;;27.20;57.90;;;27.30;58.75;98357.09;5063518;28;20689;-67
2021/06/26 09:47:33;;;;;;;11.33;10.33;;;27.00;57.80;;;27.37;60.62;98346.41;5071626;28;20651;-67
2021/06/26 09:50:15;;;;;;;13.60;11.97;;;27.10;59.90;;;27.29;59.96;98347.41;5067682;28;20733;-67
2021/06/26 09:52:47;;;;;;;11.60;10.60;;;27.00;58.90;;;27.06;58.79;98338.91;5063156;28;20635;-67
2021/06/26 09:55:23;;;;;;;11.37;10.37;;;26.90;58.10;;;27.04;61.06;98340.13;5061964;28;20640;-67
2021/06/26 09:57:56;;;;;;;10.30;9.40;;;26.80;60.20;;;27.06;60.95;98341.56;5059860;28;21034;-67
2021/06/26 10:00:28;;;;;;;10.43;9.43;;;26.80;60.00;;;27.26;60.68;98339.78;5064436;28;20746;-67
2021/06/26 10:02:58;;;;;;;10.87;9.80;;;27.00;59.50;;;27.22;59.96;98338.50;5061387;28;20311;-67
2021/06/26 10:05:27;;;;;;;10.20;9.40;;;26.90;58.70;;;27.15;59.94;98337.69;5062976;28;20640;-67
2021/06/26 10:08:00;;;;;;;11.23;10.15;;;26.90;58.90;;;27.01;59.90;98331.66;5060637;28;20742;-67
2021/06/26 10:10:29;;;;;;;11.27;10.27;;;26.80;58.90;;;27.13;59.56;98336.22;5060297;28;20309;-67
2021/06/26 10:13:00;;;;;;;11.80;10.70;;;26.80;59.10;;;27.42;59.88;98333.19;5065679;28;20723;-67
2021/06/26 10:15:31;;;;;;;11.23;10.23;;;27.00;59.50;;;27.31;59.39;98328.44;5065826;28;20689;-67